createdAt,value
2022-09-05T00:00:06.661Z,58.50
2022-09-05T00:02:49.009Z,58.60
2022-09-05T00:06:02.798Z,58.50
2022-09-05T00:08:49.311Z,58.50
2022-09-05T00:11:43.106Z,58.50
2022-09-05T00:15:17.054Z,58.50
2022-09-05T00:21:29.166Z,58.40
2022-09-05T00:24:32.906Z,58.40
2022-09-05T00:24:37.157Z,58.40
2022-09-05T00:27:04.789Z,58.30
2022-09-05T00:31:07.223Z,58.40
2022-09-05T00:32:52.255Z,58.30
2022-09-05T00:35:30.975Z,58.40
2022-09-05T00:37:58.617Z,58.30
2022-09-05T00:40:39.913Z,58.30
2022-09-05T00:43:13.277Z,58.20
2022-09-05T00:45:47.791Z,58.20
2022-09-05T00:48:25.325Z,58.20
2022-09-05T00:51:34.307Z,58.80
2022-09-05T00:54:04.268Z,58.10
2022-09-05T00:56:33.818Z,58.70
2022-09-05T00:59:22.192Z,58.00
2022-09-05T01:02:22.766Z,58.00
2022-09-05T01:04:53.862Z,58.00
2022-09-05T01:07:38.034Z,57.90
2022-09-05T01:10:19.883Z,57.90
2022-09-05T01:13:28.187Z,57.80
2022-09-05T01:16:12.865Z,57.80
2022-09-05T01:18:50.171Z,57.80
2022-09-05T01:21:25.772Z,57.90
2022-09-05T01:24:03.787Z,57.80
2022-09-05T01:27:08.114Z,57.70
2022-09-05T01:29:54.291Z,57.60
2022-09-05T01:32:37.229Z,57.50
2022-09-05T01:35:53.506Z,57.50
2022-09-05T01:38:48.319Z,57.40
2022-09-05T01:41:51.544Z,57.40
2022-09-05T01:44:49.784Z,57.40
2022-09-05T01:47:35.329Z,57.40
2022-09-05T01:50:20.145Z,57.40
2022-09-05T01:53:00.499Z,57.40
2022-09-05T01:56:02.469Z,57.30
2022-09-05T01:58:52.311Z,57.30
2022-09-05T02:01:32.477Z,57.30
2022-09-05T02:04:16.715Z,57.30
2022-09-05T02:07:30.898Z,57.30
2022-09-05T02:10:25.813Z,57.20
2022-09-05T02:13:02.924Z,57.20
2022-09-05T02:15:59.483Z,57.10
2022-09-05T02:19:08.377Z,57.10
2022-09-05T02:21:55.414Z,57.10
2022-09-05T02:24:36.472Z,57.10
2022-09-05T02:27:42.912Z,57.00
2022-09-05T02:30:26.572Z,57.00
2022-09-05T02:33:08.511Z,57.00
2022-09-05T02:36:03.951Z,56.90
2022-09-05T02:45:02.628Z,56.90
2022-09-05T02:45:08.708Z,56.80
2022-09-05T02:45:18.370Z,56.80
2022-09-05T02:47:54.518Z,56.80
2022-09-05T02:52:27.585Z,56.80
2022-09-05T02:57:42.126Z,56.70
2022-09-05T02:57:46.688Z,56.70
2022-09-05T02:59:10.338Z,56.60
2022-09-05T03:02:01.071Z,56.60
2022-09-05T03:04:50.105Z,56.60
2022-09-05T03:07:30.152Z,56.50
2022-09-05T03:10:03.195Z,56.50
2022-09-05T03:12:58.015Z,56.40
2022-09-05T03:16:29.275Z,56.50
2022-09-05T03:19:30.979Z,56.40
2022-09-05T03:22:08.053Z,56.40
2022-09-05T03:24:37.889Z,56.20
2022-09-05T03:27:23.658Z,56.10
2022-09-05T03:30:12.091Z,56.10
2022-09-05T03:33:16.305Z,56.10
2022-09-05T03:36:16.510Z,56.10
2022-09-05T03:39:19.883Z,56.10
2022-09-05T03:42:14.706Z,56.10
2022-09-05T03:45:29.920Z,56.10
2022-09-05T03:48:29.487Z,56.10
2022-09-05T03:57:10.892Z,55.90
2022-09-05T03:57:14.516Z,55.80
2022-09-05T03:57:36.981Z,55.70
2022-09-05T04:00:27.812Z,55.60
2022-09-05T04:08:07.559Z,55.60
2022-09-05T04:08:16.802Z,55.60
2022-09-05T04:08:56.971Z,55.60
2022-09-05T04:11:37.660Z,55.50
2022-09-05T04:14:40.897Z,55.50
2022-09-05T04:17:18.492Z,55.50
2022-09-05T04:19:55.230Z,55.40
2022-09-05T04:22:37.947Z,55.40
2022-09-05T04:25:22.657Z,55.30
2022-09-05T04:28:13.673Z,55.30
2022-09-05T04:30:48.395Z,55.20
2022-09-05T04:33:36.702Z,55.20
2022-09-05T04:36:28.098Z,55.10
2022-09-05T04:39:19.614Z,55.00
2022-09-05T04:42:35.419Z,55.00
2022-09-05T04:45:11.722Z,55.10
2022-09-05T04:47:46.433Z,55.00
2022-09-05T04:50:21.359Z,55.00
2022-09-05T04:53:21.243Z,55.00
2022-09-05T04:55:51.936Z,55.70
2022-09-05T05:01:01.744Z,55.00
2022-09-05T05:06:02.167Z,55.10
2022-09-05T05:06:14.079Z,55.20
2022-09-05T05:07:34.630Z,55.20
2022-09-05T05:12:48.208Z,55.20
2022-09-05T05:18:01.025Z,55.30
2022-09-05T05:18:06.722Z,55.30
2022-09-05T05:19:21.307Z,55.30
2022-09-05T05:21:53.723Z,55.30
2022-09-05T05:24:32.180Z,55.30
2022-09-05T05:27:10.588Z,55.30
2022-09-05T05:30:02.179Z,55.40
2022-09-05T05:32:46.114Z,55.50
2022-09-05T05:35:18.670Z,55.50
2022-09-05T05:37:46.960Z,55.50
2022-09-05T05:40:16.547Z,55.60
2022-09-05T05:42:45.071Z,55.70
2022-09-05T05:45:38.391Z,55.70
2022-09-05T05:48:24.929Z,55.70
2022-09-05T05:51:34.613Z,55.70
2022-09-05T05:54:32.356Z,55.80
2022-09-05T05:57:17.516Z,55.90
2022-09-05T06:00:27.840Z,56.00
2022-09-05T06:03:25.066Z,56.10
2022-09-05T06:06:07.232Z,56.20
2022-09-05T06:14:27.532Z,56.30
2022-09-05T06:14:56.531Z,56.40
2022-09-05T06:15:26.633Z,56.50
2022-09-05T06:18:14.612Z,56.70
2022-09-05T06:22:08.553Z,56.80
2022-09-05T06:24:25.464Z,56.90
2022-09-05T06:27:18.893Z,57.00
2022-09-05T06:30:08.951Z,57.10
2022-09-05T06:32:58.459Z,57.30
2022-09-05T06:35:43.040Z,57.30
2022-09-05T06:38:39.314Z,57.40
2022-09-05T06:41:20.668Z,57.50
2022-09-05T06:44:02.148Z,57.60
2022-09-05T06:47:05.793Z,57.70
2022-09-05T06:49:45.846Z,57.80
2022-09-05T06:52:29.957Z,57.90
2022-09-05T06:55:35.293Z,58.00
2022-09-05T06:58:04.769Z,58.00
2022-09-05T07:00:54.928Z,58.10
2022-09-05T07:03:56.062Z,58.20
2022-09-05T07:07:01.679Z,58.30
2022-09-05T07:09:47.333Z,58.40
2022-09-05T07:12:30.099Z,58.50
2022-09-05T07:15:08.382Z,58.50
2022-09-05T07:18:11.347Z,58.60
2022-09-05T07:21:17.336Z,58.60
2022-09-05T07:24:06.470Z,58.70
2022-09-05T07:26:51.795Z,58.90
2022-09-05T07:29:33.126Z,59.00
2022-09-05T07:32:03.024Z,59.10
2022-09-05T07:34:32.503Z,59.20
2022-09-05T07:37:15.605Z,59.30
2022-09-05T07:39:54.736Z,59.50
2022-09-05T07:42:26.739Z,59.50
2022-09-05T07:45:02.549Z,59.50
2022-09-05T07:47:36.208Z,59.50
2022-09-05T07:51:20.270Z,59.50
2022-09-05T07:56:58.566Z,59.70
2022-09-05T07:57:06.155Z,59.80
2022-09-05T07:58:51.695Z,59.90
2022-09-05T08:01:22.449Z,60.10
2022-09-05T08:03:56.011Z,60.20
2022-09-05T08:07:34.750Z,60.20
2022-09-05T08:09:49.577Z,60.20
2022-09-05T08:12:16.237Z,60.20
2022-09-05T08:14:48.041Z,60.20
2022-09-05T08:17:29.963Z,60.20
2022-09-05T08:20:18.341Z,60.30
2022-09-05T08:22:58.997Z,60.30
2022-09-05T08:25:42.150Z,60.40
2022-09-05T08:28:39.947Z,60.40
2022-09-05T08:31:19.428Z,60.30
2022-09-05T08:33:48.326Z,60.20
2022-09-05T08:36:18.398Z,60.30
2022-09-05T08:38:45.905Z,60.50
2022-09-05T08:41:42.996Z,60.70
2022-09-05T08:46:43.898Z,60.70
2022-09-05T08:47:45.811Z,61.00
2022-09-05T08:50:26.999Z,61.20
2022-09-05T08:53:45.258Z,61.20
2022-09-05T08:56:24.636Z,61.20
2022-09-05T08:59:31.457Z,60.90
2022-09-05T09:02:47.151Z,60.70
2022-09-05T09:06:11.986Z,60.50
2022-09-05T09:08:53.158Z,60.20
2022-09-05T09:11:44.225Z,59.80
2022-09-05T09:14:31.638Z,59.50
2022-09-05T09:17:16.749Z,59.20
2022-09-05T09:20:06.321Z,58.90
2022-09-05T09:22:33.562Z,58.70
2022-09-05T09:25:15.796Z,58.50
2022-09-05T09:28:43.673Z,58.20
2022-09-05T09:30:36.248Z,58.10
2022-09-05T09:33:06.284Z,58.10
2022-09-05T09:35:41.659Z,58.10
2022-09-05T09:38:36.215Z,58.00
2022-09-05T09:41:21.840Z,58.00
2022-09-05T09:44:25.287Z,58.00
2022-09-05T09:46:52.668Z,58.10
2022-09-05T09:49:40.697Z,58.10
2022-09-05T09:52:28.991Z,58.10
2022-09-05T09:55:16.444Z,58.00
2022-09-05T09:57:57.393Z,58.00
2022-09-05T10:00:25.688Z,57.90
2022-09-05T10:05:18.246Z,58.00
2022-09-05T10:10:38.272Z,57.90
2022-09-05T10:10:49.222Z,57.90
2022-09-05T10:13:08.654Z,57.90
2022-09-05T10:15:59.740Z,57.80
2022-09-05T10:18:45.393Z,57.90
2022-09-05T10:22:33.907Z,57.90
2022-09-05T10:24:51.094Z,57.90
2022-09-05T10:27:39.077Z,57.90
2022-09-05T10:32:20.756Z,57.80
2022-09-05T10:35:14.465Z,57.60
2022-09-05T10:37:09.570Z,57.50
2022-09-05T10:39:42.919Z,57.50
2022-09-05T10:42:31.457Z,57.50
2022-09-05T10:45:05.012Z,57.40
2022-09-05T10:47:58.512Z,57.30
2022-09-05T10:50:44.528Z,57.40
2022-09-05T10:53:27.011Z,57.40
2022-09-05T10:56:15.856Z,57.50
2022-09-05T11:01:10.393Z,57.60
2022-09-05T11:02:32.070Z,57.70
2022-09-05T11:04:51.025Z,57.70
2022-09-05T11:07:24.851Z,57.80
2022-09-05T11:10:14.294Z,57.90
2022-09-05T11:13:14.292Z,57.80
2022-09-05T11:16:13.670Z,57.80
2022-09-05T11:19:00.857Z,57.60
2022-09-05T11:22:07.457Z,57.50
2022-09-05T11:24:58.461Z,57.40
2022-09-05T11:27:41.578Z,57.30
2022-09-05T11:30:29.601Z,57.40
2022-09-05T11:37:32.120Z,57.30
2022-09-05T11:39:51.795Z,57.30
2022-09-05T11:39:51.881Z,57.30
2022-09-05T11:42:41.365Z,57.30
2022-09-05T11:45:19.491Z,57.40
2022-09-05T11:48:05.907Z,57.40
2022-09-05T11:51:16.078Z,57.40
2022-09-05T11:53:54.777Z,57.40
2022-09-05T11:57:33.908Z,57.20
2022-09-05T12:00:09.258Z,57.10
2022-09-05T12:03:38.515Z,56.90
2022-09-05T12:06:21.995Z,57.00
2022-09-05T12:09:24.549Z,56.90
2022-09-05T12:12:39.594Z,56.90
2022-09-05T12:15:29.303Z,56.90
2022-09-05T12:18:25.643Z,56.90
2022-09-05T12:21:19.666Z,56.80
2022-09-05T12:25:23.782Z,56.80
2022-09-05T12:27:44.417Z,56.80
2022-09-05T12:30:04.246Z,56.80
2022-09-05T12:33:59.341Z,56.80
2022-09-05T12:36:12.957Z,56.80
2022-09-05T12:40:21.350Z,56.70
2022-09-05T12:42:08.473Z,56.60
2022-09-05T12:45:02.824Z,56.40
2022-09-05T12:47:30.758Z,56.30
2022-09-05T12:50:02.992Z,56.30
2022-09-05T12:52:44.170Z,56.20
2022-09-05T12:55:22.429Z,56.20
2022-09-05T13:02:57.033Z,56.10
2022-09-05T13:03:02.982Z,55.90
2022-09-05T13:03:53.326Z,55.90
2022-09-05T13:06:41.550Z,55.90
2022-09-05T13:09:16.707Z,55.90
2022-09-05T13:14:52.573Z,55.70
2022-09-05T13:15:19.968Z,55.70
2022-09-05T13:17:59.370Z,55.60
2022-09-05T13:20:36.668Z,55.50
2022-09-05T13:23:24.705Z,55.40
2022-09-05T13:26:08.236Z,55.50
2022-09-05T13:28:46.266Z,55.40
2022-09-05T13:37:55.320Z,55.20
2022-09-05T13:37:59.036Z,55.20
2022-09-05T13:38:03.041Z,55.20
2022-09-05T13:39:55.366Z,55.10
2022-09-05T13:42:25.423Z,55.00
2022-09-05T13:44:58.853Z,54.90
2022-09-05T13:47:58.328Z,54.80
2022-09-05T13:50:41.304Z,54.70
2022-09-05T13:53:26.655Z,55.40
2022-09-05T13:56:03.616Z,54.70
2022-09-05T13:58:56.533Z,54.60
2022-09-05T14:02:25.028Z,54.60
2022-09-05T14:05:16.155Z,54.50
2022-09-05T14:07:51.283Z,54.50
2022-09-05T14:10:48.401Z,54.60
2022-09-05T14:13:24.119Z,54.70
2022-09-05T14:16:01.392Z,54.80
2022-09-05T14:18:58.202Z,54.90
2022-09-05T14:21:32.554Z,54.80
2022-09-05T14:24:12.502Z,54.90
2022-09-05T14:26:53.786Z,54.90
2022-09-05T14:29:33.067Z,55.00
2022-09-05T14:37:43.566Z,55.00
2022-09-05T14:37:45.734Z,55.10
2022-09-05T14:38:40.258Z,55.10
2022-09-05T14:41:54.653Z,55.00
2022-09-05T14:45:00.073Z,55.00
2022-09-05T14:47:47.424Z,55.00
2022-09-05T14:50:36.127Z,55.00
2022-09-05T14:57:22.993Z,55.00
2022-09-05T15:02:39.119Z,54.90
2022-09-05T15:02:49.131Z,54.90
2022-09-05T15:05:10.986Z,54.90
2022-09-05T15:07:49.792Z,54.80
2022-09-05T15:12:16.833Z,54.70
2022-09-05T15:13:16.899Z,54.70
2022-09-05T15:16:02.373Z,54.60
2022-09-05T15:18:36.474Z,54.60
2022-09-05T15:21:34.048Z,54.50
2022-09-05T15:24:17.058Z,54.40
2022-09-05T15:27:00.267Z,54.40
2022-09-05T15:29:34.084Z,54.40
2022-09-05T15:32:12.972Z,54.30
2022-09-05T15:34:39.813Z,54.30
2022-09-05T15:37:23.670Z,54.30
2022-09-05T15:40:07.767Z,54.20
2022-09-05T15:43:00.588Z,54.30
2022-09-05T15:45:35.144Z,54.20
2022-09-05T15:48:16.567Z,54.20
2022-09-05T15:50:50.090Z,54.20
2022-09-05T15:53:36.825Z,54.20
2022-09-05T15:56:09.951Z,54.20
2022-09-05T15:58:53.744Z,54.40
2022-09-05T16:01:58.604Z,54.40
2022-09-05T16:08:43.397Z,54.40
2022-09-05T16:10:42.219Z,54.50
2022-09-05T16:10:42.752Z,54.50
2022-09-05T16:12:56.533Z,54.50
2022-09-05T16:23:17.985Z,54.60
2022-09-05T16:23:30.265Z,54.70
2022-09-05T16:23:30.267Z,54.80
2022-09-05T16:24:29.919Z,54.80
2022-09-05T16:27:13.554Z,54.90
2022-09-05T16:29:46.200Z,54.90
2022-09-05T16:32:26.487Z,55.00
2022-09-05T16:35:07.119Z,55.00
2022-09-05T16:37:41.949Z,55.00
2022-09-05T16:40:33.413Z,55.00
2022-09-05T16:43:07.451Z,55.00
2022-09-05T16:46:23.239Z,55.00
2022-09-05T16:48:56.186Z,55.00
2022-09-05T16:51:41.399Z,55.10
2022-09-05T16:54:32.004Z,55.00
2022-09-05T16:57:04.493Z,55.10
2022-09-05T16:59:37.960Z,55.00
2022-09-05T17:02:31.097Z,55.00
2022-09-05T17:05:05.978Z,55.00
2022-09-05T17:07:42.193Z,55.00
2022-09-05T17:10:18.213Z,54.90
2022-09-05T17:12:45.607Z,55.60
2022-09-05T17:15:37.919Z,55.10
2022-09-05T17:18:25.189Z,55.10
2022-09-05T17:21:00.517Z,55.10
2022-09-05T17:28:34.658Z,55.30
2022-09-05T17:29:27.751Z,55.40
2022-09-05T17:32:47.736Z,55.60
2022-09-05T17:35:48.688Z,55.70
2022-09-05T17:38:33.687Z,55.80
2022-09-05T17:41:19.495Z,55.90
2022-09-05T17:44:15.877Z,56.00
2022-09-05T17:46:52.582Z,56.10
2022-09-05T17:49:43.113Z,56.20
2022-09-05T17:52:17.392Z,56.20
2022-09-05T17:54:50.273Z,56.20
2022-09-05T17:57:29.339Z,56.20
2022-09-05T18:00:02.282Z,56.20
2022-09-05T18:02:55.164Z,56.30
2022-09-05T18:05:54.039Z,56.20
2022-09-05T18:08:46.272Z,56.20
2022-09-05T18:11:25.326Z,56.20
2022-09-05T18:14:24.691Z,56.30
2022-09-05T18:17:36.481Z,56.20
2022-09-05T18:19:46.128Z,56.20
2022-09-05T18:22:31.859Z,56.20
2022-09-05T18:25:28.972Z,56.20
2022-09-05T18:28:04.500Z,56.30
2022-09-05T18:30:47.476Z,56.30
2022-09-05T18:33:54.332Z,56.40
2022-09-05T18:36:25.708Z,56.60
2022-09-05T18:39:29.582Z,57.40
2022-09-05T18:42:26.081Z,56.70
2022-09-05T18:45:15.337Z,56.80
2022-09-05T18:47:52.784Z,56.90
2022-09-05T18:50:28.125Z,56.80
2022-09-05T18:53:09.379Z,56.80
2022-09-05T18:56:11.347Z,56.90
2022-09-05T18:58:34.171Z,56.90
2022-09-05T19:01:20.123Z,57.00
2022-09-05T19:03:52.445Z,57.00
2022-09-05T19:06:35.632Z,57.10
2022-09-05T19:09:14.023Z,57.20
2022-09-05T19:11:56.751Z,57.30
2022-09-05T19:14:48.834Z,57.30
2022-09-05T19:17:22.990Z,57.30
2022-09-05T19:20:32.838Z,57.30
2022-09-05T19:23:13.160Z,57.30
2022-09-05T19:25:53.848Z,57.30
2022-09-05T19:36:47.123Z,57.40
2022-09-05T19:36:56.452Z,57.30
2022-09-05T19:37:09.604Z,57.40
2022-09-05T19:41:39.900Z,57.40
2022-09-05T19:47:51.108Z,57.30
2022-09-05T19:47:51.217Z,57.30
2022-09-05T19:48:34.399Z,57.30
2022-09-05T19:51:17.800Z,57.30
2022-09-05T19:53:48.873Z,57.40
2022-09-05T19:56:42.934Z,57.50
2022-09-05T19:59:22.492Z,57.50
2022-09-05T20:01:54.667Z,57.50
2022-09-05T20:04:21.739Z,57.70
2022-09-05T20:06:50.001Z,57.70
2022-09-05T20:09:19.322Z,57.70
2022-09-05T20:11:51.411Z,57.70
2022-09-05T20:14:22.917Z,57.70
2022-09-05T20:16:52.938Z,57.80
2022-09-05T20:19:34.484Z,57.80
2022-09-05T20:22:48.178Z,57.80
2022-09-05T20:25:00.261Z,57.80
2022-09-05T20:27:29.816Z,57.80
2022-09-05T20:30:03.109Z,57.90
2022-09-05T20:32:40.588Z,57.90
2022-09-05T20:39:34.157Z,58.60
2022-09-05T20:43:19.344Z,57.90
2022-09-05T20:43:31.290Z,58.00
2022-09-05T20:44:22.412Z,58.00
2022-09-05T20:50:30.729Z,58.00
2022-09-05T20:54:16.975Z,58.00
2022-09-05T20:54:28.818Z,58.00
2022-09-05T20:55:41.302Z,58.10
2022-09-05T20:58:12.555Z,58.10
2022-09-05T21:01:24.387Z,58.00
2022-09-05T21:03:38.552Z,58.00
2022-09-05T21:06:22.215Z,58.00
2022-09-05T21:08:50.920Z,58.00
2022-09-05T21:11:17.921Z,57.90
2022-09-05T21:13:52.467Z,57.90
2022-09-05T21:16:29.200Z,57.80
2022-09-05T21:18:56.138Z,57.80
2022-09-05T21:21:30.154Z,57.70
2022-09-05T21:24:16.488Z,57.70
2022-09-05T21:26:46.584Z,57.70
2022-09-05T21:29:16.383Z,57.60
2022-09-05T21:31:54.394Z,57.50
2022-09-05T21:34:31.138Z,57.50
2022-09-05T21:37:07.166Z,57.50
2022-09-05T21:39:51.957Z,57.40
2022-09-05T21:46:38.663Z,57.40
2022-09-05T21:47:39.710Z,57.40
2022-09-05T21:48:08.284Z,57.40
2022-09-05T21:50:42.800Z,57.40
2022-09-05T21:56:13.695Z,57.30
2022-09-05T21:59:24.162Z,57.30
2022-09-05T21:59:27.730Z,57.30
2022-09-05T22:01:53.176Z,57.20
2022-09-05T22:04:22.068Z,57.20
2022-09-05T22:06:49.720Z,57.20
2022-09-05T22:09:17.876Z,57.30
2022-09-05T22:11:50.244Z,57.20
2022-09-05T22:14:19.186Z,57.20
2022-09-05T22:16:47.563Z,57.20
2022-09-05T22:19:22.403Z,57.30
2022-09-05T22:21:51.661Z,57.40
2022-09-05T22:24:19.185Z,57.40
2022-09-05T22:26:55.628Z,57.50
2022-09-05T22:29:36.511Z,57.50
2022-09-05T22:32:05.228Z,57.60
2022-09-05T22:34:33.484Z,57.50
2022-09-05T22:37:00.284Z,57.60
2022-09-05T22:39:36.501Z,57.50
2022-09-05T22:42:10.100Z,57.50
2022-09-05T22:44:41.707Z,57.50
2022-09-05T22:47:10.141Z,57.50
2022-09-05T22:49:37.320Z,57.40
2022-09-05T22:52:08.972Z,57.30
2022-09-05T22:54:36.204Z,57.30
2022-09-05T22:57:04.071Z,57.30
2022-09-05T22:59:31.293Z,57.20
2022-09-05T23:01:58.506Z,57.20
2022-09-05T23:04:25.964Z,57.80
2022-09-05T23:06:53.100Z,57.20
2022-09-05T23:09:20.180Z,57.10
2022-09-05T23:11:47.048Z,57.00
2022-09-05T23:14:13.838Z,57.00
2022-09-05T23:16:40.608Z,57.00
2022-09-05T23:19:07.421Z,56.90
2022-09-05T23:21:34.256Z,56.80
2022-09-05T23:24:01.045Z,56.80
2022-09-05T23:26:27.886Z,56.70
2022-09-05T23:28:54.689Z,56.70
2022-09-05T23:31:21.642Z,56.70
2022-09-05T23:33:48.504Z,56.70
2022-09-05T23:36:15.280Z,56.60
2022-09-05T23:38:43.243Z,56.60
2022-09-05T23:41:12.850Z,56.60
2022-09-05T23:43:39.668Z,56.50
2022-09-05T23:46:06.907Z,56.50
2022-09-05T23:48:34.140Z,56.50
2022-09-05T23:51:12.050Z,56.40
2022-09-05T23:53:39.139Z,56.40
2022-09-05T23:56:07.762Z,56.40
2022-09-05T23:58:36.057Z,56.40
